Mansfield Lahm Regional Airport Mansfield US
ICAO: KMFD
IATA: MFD
Category: Medium
Scheduled Services: No

Elevation: 1297 ft
TransAlt. 18000 ft.

Airport Communications:
APP/DEP:124.2
ATIS:125.3
CTAF:119.8
GND:121.8
HERC COMD POST:29.75
CLEVELAND RDO:122.6
TWR:119.8
UNICOM:122.95

KMFD Zoom In..

If you have problems with the map follow the link
https://www.worldairports.se/pages/airport.php?
ICAO=KMFD

Runways:

(A) RW 05 length 6800 ft width 150 ft
---- / hdg 53

(B) RW 14 length 9001 ft width 150 ft
---- / hdg 143

(C) RW 23 length 6800 ft width 150 ft
---- / hdg 233

(D) RW 32 length 9001 ft width 150 ft
ILS 110.50 / hdg 323

Location; KMFD
Day. 16 / Time. 11.52 Zulu
* Altimeter: 29.86
* Temperature: -01° c. -30.2°f.
* Wind from: 220° Speed 12 kn.
Dewpoint: -01° c.
Visibility: 4 Statute Miles.
Clouds: Overcast 800 ft.
Conditions: Mist.

KMFD 161152Z 22012KT 4SM BR OVC008 M01/M01 A2986 RMK AO2 SNE15 CIG 006V012 SLP125 P0001 60001 70055 T10061011 10000 21006 53002


Wind From 220°
Speed 12 kn.

 
 
jpsmedia.com for Web Design worldairports.se 2018   terms of use